Vidfoss — V2QK4 — position and weather

sailwx.info

Track history (hours):
 
Tides and Currents Weather Stations Pressure Air Temp Water Temp Dewpoint Dewpoint Depression Visibility Wind Speed Wind Dir Waves Ship Positions

Vidfoss

Last reported at 2017-Mar-30 15:33 UTC. Time now 2017-Mar-30 16:31 UTC.
Position N 68°25' E 016°00'.

Length 93 m; draft 4.2 m.

Type: Cargo ship. MMSI: 305846000.

Date/timePositionNaut miles runAvg speedWind from/ knotsBaromVisibWave heightAir tempDewpointWater temp
2017-Mar-30 15:33N 68°25' E 016°00'0 0.0
2017-Mar-30 14:33N 68°25' E 015°60'0 0.0
2017-Mar-30 13:33N 68°25' E 015°60'0 0.0
2017-Mar-30 12:33N 68°25' E 016°00'0 0.0
2017-Mar-30 11:33N 68°25' E 015°60'0 0.0
2017-Mar-30 10:32N 68°25' E 016°00'0 0.0
2017-Mar-30 09:33N 68°25' E 015°60'0 0.0
2017-Mar-30 08:33N 68°25' E 016°00'0 0.0
2017-Mar-30 07:33N 68°25' E 015°60'0 0.0
2017-Mar-30 06:33N 68°25' E 016°00'0 0.0
2017-Mar-30 05:32N 68°25' E 016°00'0 0.0
2017-Mar-30 04:32N 68°25' E 015°60'2 2.4
2017-Mar-30 03:33N 68°27' E 016°04'10 9.7
2017-Mar-30 02:33N 68°34' E 016°23'8 7.8
2017-Mar-30 01:32N 68°39' E 016°37'1110.7
2017-Mar-30 00:33N 68°49' E 016°52'1110.7
2017-Mar-29 23:33N 68°58' E 017°08'1110.6
2017-Mar-29 22:33N 69°06' E 017°27'1110.7
2017-Mar-29 21:33N 69°10' E 017°55'9 9.2
2017-Mar-29 20:33N 69°19' E 017°59'1010.1
2017-Mar-29 19:33N 69°28' E 018°09'1111.1
2017-Mar-29 18:32N 69°33' E 018°38'8 8.1
2017-Mar-29 17:33N 69°38' E 018°57'0 0.0
2017-Mar-29 16:32N 69°38' E 018°57'0 0.0
2017-Mar-29 15:33N 69°38' E 018°57'0 0.0
2017-Mar-29 14:32N 69°38' E 018°57'0 0.1
2017-Mar-29 13:32N 69°38' E 018°57'0 0.0
2017-Mar-29 12:33N 69°38' E 018°57'0 0.0
2017-Mar-29 11:33N 69°38' E 018°57'0 0.0
2017-Mar-29 10:33N 69°38' E 018°57'0 0.0
2017-Mar-29 09:33N 69°38' E 018°57'0 0.0
2017-Mar-29 08:32N 69°38' E 018°57'0 0.0
2017-Mar-29 07:33N 69°38' E 018°57'0 0.1
2017-Mar-29 06:33N 69°38' E 018°57'0 0.0
2017-Mar-29 05:33N 69°38' E 018°57'0 0.0
2017-Mar-29 04:33N 69°38' E 018°57'0 0.0
2017-Mar-29 03:33N 69°38' E 018°57'0 0.0
2017-Mar-29 02:33N 69°38' E 018°57'0 0.0
2017-Mar-29 01:32N 69°38' E 018°57'0 0.0
2017-Mar-29 00:33N 69°38' E 018°57'1 1.1
2017-Mar-28 23:33N 69°37' E 018°55'2 2.0
2017-Mar-28 22:32N 69°38' E 018°58'1 1.0
2017-Mar-28 21:33N 69°39' E 018°58'0 0.0
2017-Mar-28 20:33N 69°39' E 018°58'0 0.2
2017-Mar-28 19:33N 69°39' E 018°59'0 0.2
2017-Mar-28 18:33N 69°39' E 018°59'2 1.8
2017-Mar-28 17:33N 69°38' E 018°56'0 0.0
2017-Mar-28 16:33N 69°38' E 018°56'0 0.0
2017-Mar-28 15:33N 69°38' E 018°56'0 0.0
2017-Mar-28 14:33N 69°38' E 018°56'0 0.0
2017-Mar-28 13:33N 69°38' E 018°56'0 0.0
2017-Mar-28 12:33N 69°38' E 018°56'0 0.0
2017-Mar-28 11:33N 69°38' E 018°56'0 0.0
2017-Mar-28 10:33N 69°38' E 018°56'0 0.0
2017-Mar-28 09:33N 69°38' E 018°56'0 0.0
2017-Mar-28 08:33N 69°38' E 018°56'0 0.0
2017-Mar-28 07:33N 69°38' E 018°56'0 0.0
2017-Mar-28 06:33N 69°38' E 018°56'0 0.0
2017-Mar-28 05:32N 69°38' E 018°56'0 0.0
2017-Mar-28 04:33N 69°38' E 018°56'0 0.0
2017-Mar-28 03:33N 69°38' E 018°56'0 0.0
2017-Mar-28 02:32N 69°38' E 018°56'0 0.0
2017-Mar-28 01:34N 69°38' E 018°56'0 0.0
2017-Mar-28 00:33N 69°38' E 018°56'0 0.0
2017-Mar-27 23:33N 69°38' E 018°56'0 0.0
2017-Mar-27 22:33N 69°38' E 018°56'7 7.2
2017-Mar-27 21:33N 69°33' E 018°41'1312.9
2017-Mar-27 20:33N 69°28' E 018°08'1211.8
2017-Mar-27 19:33N 69°17' E 017°58'1010.0
2017-Mar-27 18:33N 69°08' E 017°43'1212.4
2017-Mar-27 17:33N 69°00' E 017°16'1212.2
2017-Mar-27 16:33N 68°50' E 016°56'1211.8
2017-Mar-27 15:33N 68°40' E 016°39'1111.0
2017-Mar-27 14:33N 68°33' E 016°16'1212.5
2017-Mar-27 13:33N 68°22' E 015°59'1313.0
2017-Mar-27 12:33N 68°13' E 015°35'1313.1
2017-Mar-27 11:33N 68°05' E 015°08'1313.1
2017-Mar-27 10:33N 67°56' E 014°42'1212.1
2017-Mar-27 09:33N 67°47' E 014°21'1212.0
2017-Mar-27 08:33N 67°35' E 014°21'1212.2
2017-Mar-27 07:33N 67°23' E 014°25'1312.7
2017-Mar-27 06:33N 67°12' E 014°06'1312.4
2017-Mar-27 05:33N 67°02' E 013°47'1211.8
2017-Mar-27 04:33N 66°54' E 013°26'1212.3
2017-Mar-27 03:33N 66°43' E 013°11'1211.9
2017-Mar-27 02:33N 66°32' E 012°58'1312.7
2017-Mar-27 01:33N 66°20' E 012°57'1312.7
2017-Mar-27 00:32N 66°07' E 012°46'1313.2
2017-Mar-26 23:33N 65°57' E 012°26'1313.1
2017-Mar-26 22:33N 65°45' E 012°18'1312.6
2017-Mar-26 21:33N 65°33' E 012°04'1111.0
2017-Mar-26 20:33N 65°22' E 012°00'1111.0
2017-Mar-26 19:33N 65°12' E 011°52'1212.5
2017-Mar-26 18:33N 65°01' E 011°40'1312.7
2017-Mar-26 17:33N 64°52' E 011°17'9 8.8
2017-Mar-26 16:33N 64°46' E 011°02'1212.3
2017-Mar-26 15:33N 64°38' E 010°41'1211.7
2017-Mar-26 14:32N 64°28' E 010°26'1111.6
2017-Mar-26 13:33N 64°17' E 010°19'1212.3
2017-Mar-26 12:33N 64°07' E 010°02'1111.5
2017-Mar-26 11:33N 63°58' E 009°47'1212.5
2017-Mar-26 10:33N 63°47' E 009°33'1312.5
2017-Mar-26 09:33N 63°35' E 009°24'1514.4
2017-Mar-26 08:33N 63°28' E 008°56'1414.2
2017-Mar-26 07:32N 63°22' E 008°26'1414.3
2017-Mar-26 06:33N 63°14' E 008°01'1413.8
2017-Mar-26 05:33N 63°07' E 007°34'1313.2
2017-Mar-26 04:33N 63°01' E 007°08'1312.9
2017-Mar-26 03:34N 62°54' E 006°45'1413.6
2017-Mar-26 02:33N 62°42' E 006°29'1312.9
2017-Mar-26 01:33N 62°33' E 006°10'1110.6
2017-Mar-26 00:33N 62°27' E 005°51'1312.4
2017-Mar-25 23:33N 62°23' E 005°25'1313.0
2017-Mar-25 22:32N 62°13' E 005°08'1010.6
2017-Mar-25 21:33N 62°03' E 005°08'1110.7
2017-Mar-25 20:33N 61°52' E 005°13'1010.4
2017-Mar-25 19:33N 61°44' E 004°59'1212.1
2017-Mar-25 18:33N 61°32' E 005°00'1312.5
2017-Mar-25 17:33N 61°21' E 004°48'1211.9
2017-Mar-25 16:33N 61°09' E 004°45'1312.6
2017-Mar-25 15:33N 60°57' E 004°45'1212.0
2017-Mar-25 14:33N 60°45' E 004°48'1312.5
2017-Mar-25 13:33N 60°33' E 004°56'1212.3
2017-Mar-25 12:33N 60°23' E 005°10'1211.7
2017-Mar-25 11:33N 60°11' E 005°13'1312.9
2017-Mar-25 10:33N 59°59' E 005°22'1312.6
2017-Mar-25 09:33N 59°48' E 005°33'1212.2
2017-Mar-25 08:33N 59°38' E 005°19'1212.0
2017-Mar-25 07:33N 59°26' E 005°14'1111.4
2017-Mar-25 06:33N 59°16' E 005°20'1212.2
2017-Mar-25 05:33N 59°03' E 005°21'1212.1
2017-Mar-25 04:33N 58°51' E 005°21'1211.7
2017-Mar-25 03:33N 58°40' E 005°23'1111.3
2017-Mar-25 02:33N 58°28' E 005°25'1111.4
2017-Mar-25 01:33N 58°17' E 005°25'12911.6
2017-Mar-24 14:26N 56°08' E 005°27'1212.1
2017-Mar-24 13:25N 55°56' E 005°26'1112.1
2017-Mar-24 12:33N 55°45' E 005°25'16411.6
2017-Mar-23 22:26N 53°04' E 004°33'1011.2
2017-Mar-23 21:33N 52°54' E 004°32'1111.1
2017-Mar-23 20:33N 52°43' E 004°30'1111.0
2017-Mar-23 19:33N 52°32' E 004°30'6 5.6
2017-Mar-23 18:33N 52°28' E 004°36'2 2.3
2017-Mar-23 17:33N 52°28' E 004°40'0 0.0
2017-Mar-23 16:33N 52°28' E 004°40'0 0.0
2017-Mar-23 14:33N 52°28' E 004°40'0 0.0
2017-Mar-23 13:33N 52°28' E 004°40'0 0.0
2017-Mar-23 12:33N 52°28' E 004°40'0 0.0
2017-Mar-23 11:33N 52°28' E 004°40'0 0.0
2017-Mar-23 10:33N 52°28' E 004°40'0 0.0
2017-Mar-23 09:33N 52°28' E 004°40'0 0.0
2017-Mar-23 08:33N 52°28' E 004°40'0 0.0
2017-Mar-23 07:33N 52°28' E 004°40'0 0.0
2017-Mar-23 06:33N 52°28' E 004°40'0 0.0
2017-Mar-23 05:33N 52°28' E 004°40'2 1.8
2017-Mar-23 04:33N 52°28' E 004°37'5 4.7
2017-Mar-23 03:33N 52°29' E 004°29'1212.1
2017-Mar-23 02:33N 52°41' E 004°29'1211.6
2017-Mar-23 01:31N 52°53' E 004°30'31410.5
2017-Mar-21 19:30N 58°04' E 005°56'1010.4
2017-Mar-21 18:33N 58°14' E 005°58'1110.8
2017-Mar-21 17:33N 58°24' E 005°60'2 2.3
2017-Mar-21 16:33N 58°27' E 005°59'0 0.0
2017-Mar-21 15:33N 58°27' E 005°59'0 0.0
2017-Mar-21 14:33N 58°27' E 005°59'0 0.0
2017-Mar-21 13:33N 58°27' E 005°59'0 0.0
2017-Mar-21 12:33N 58°27' E 005°59'0 0.0
2017-Mar-21 11:33N 58°27' E 005°59'0 0.0
2017-Mar-21 10:33N 58°27' E 005°59'3 3.2
2017-Mar-21 09:33N 58°24' E 005°55'1211.9
2017-Mar-21 08:33N 58°29' E 005°35'8 7.5
2017-Mar-21 07:33N 58°33' E 005°22'1 1.1
2017-Mar-21 06:31N 58°33' E 005°20'1 1.2
2017-Mar-21 05:33N 58°33' E 005°18'8 8.4
2017-Mar-21 04:34N 58°41' E 005°22'8 8.3
2017-Mar-21 03:34N 58°49' E 005°26'9 8.8
2017-Mar-21 02:33N 58°57' E 005°33'1110.8
2017-Mar-21 01:33N 59°07' E 005°27'1110.8
2017-Mar-21 00:33N 59°18' E 005°20'10 9.9
2017-Mar-20 23:33N 59°27' E 005°13'1010.3
2017-Mar-20 22:33N 59°37' E 005°17'1111.5
2017-Mar-20 21:34N 59°46' E 005°32'1110.6
2017-Mar-20 20:33N 59°56' E 005°28'1110.8
2017-Mar-20 19:33N 60°06' E 005°18'1111.0
2017-Mar-20 18:33N 60°16' E 005°10'10 9.6
2017-Mar-20 17:33N 60°25' E 005°03'1111.1
2017-Mar-20 16:33N 60°35' E 004°54'1110.7
2017-Mar-20 15:33N 60°45' E 004°46'  
Track history (hours):
 
Tides and Currents Weather Stations Pressure Air Temp Water Temp Dewpoint Dewpoint Depression Visibility Wind Speed Wind Dir Waves Ship Positions

Vidfoss

Last reported at 2017-Mar-30 15:33 UTC. Time now 2017-Mar-30 16:31 UTC.
Position N 68°25' E 016°00'.

Length 93 m; draft 4.2 m.

Type: Cargo ship. MMSI: 305846000.

Date/timePositionNaut miles runAvg speedWind from/ knotsBaromVisibWave heightAir tempDewpointWater temp
2017-Mar-30 15:33N 68°25' E 016°00'0 0.0
2017-Mar-30 14:33N 68°25' E 015°60'0 0.0
2017-Mar-30 13:33N 68°25' E 015°60'0 0.0
2017-Mar-30 12:33N 68°25' E 016°00'0 0.0
2017-Mar-30 11:33N 68°25' E 015°60'0 0.0
2017-Mar-30 10:32N 68°25' E 016°00'0 0.0
2017-Mar-30 09:33N 68°25' E 015°60'0 0.0
2017-Mar-30 08:33N 68°25' E 016°00'0 0.0
2017-Mar-30 07:33N 68°25' E 015°60'0 0.0
2017-Mar-30 06:33N 68°25' E 016°00'0 0.0
2017-Mar-30 05:32N 68°25' E 016°00'0 0.0
2017-Mar-30 04:32N 68°25' E 015°60'2 2.4
2017-Mar-30 03:33N 68°27' E 016°04'10 9.7
2017-Mar-30 02:33N 68°34' E 016°23'8 7.8
2017-Mar-30 01:32N 68°39' E 016°37'1110.7
2017-Mar-30 00:33N 68°49' E 016°52'1110.7
2017-Mar-29 23:33N 68°58' E 017°08'1110.6
2017-Mar-29 22:33N 69°06' E 017°27'1110.7
2017-Mar-29 21:33N 69°10' E 017°55'9 9.2
2017-Mar-29 20:33N 69°19' E 017°59'1010.1
2017-Mar-29 19:33N 69°28' E 018°09'1111.1
2017-Mar-29 18:32N 69°33' E 018°38'8 8.1
2017-Mar-29 17:33N 69°38' E 018°57'0 0.0
2017-Mar-29 16:32N 69°38' E 018°57'0 0.0
2017-Mar-29 15:33N 69°38' E 018°57'0 0.0
2017-Mar-29 14:32N 69°38' E 018°57'0 0.1
2017-Mar-29 13:32N 69°38' E 018°57'0 0.0
2017-Mar-29 12:33N 69°38' E 018°57'0 0.0
2017-Mar-29 11:33N 69°38' E 018°57'0 0.0
2017-Mar-29 10:33N 69°38' E 018°57'0 0.0
2017-Mar-29 09:33N 69°38' E 018°57'0 0.0
2017-Mar-29 08:32N 69°38' E 018°57'0 0.0
2017-Mar-29 07:33N 69°38' E 018°57'0 0.1
2017-Mar-29 06:33N 69°38' E 018°57'0 0.0
2017-Mar-29 05:33N 69°38' E 018°57'0 0.0
2017-Mar-29 04:33N 69°38' E 018°57'0 0.0
2017-Mar-29 03:33N 69°38' E 018°57'0 0.0
2017-Mar-29 02:33N 69°38' E 018°57'0 0.0
2017-Mar-29 01:32N 69°38' E 018°57'0 0.0
2017-Mar-29 00:33N 69°38' E 018°57'1 1.1
2017-Mar-28 23:33N 69°37' E 018°55'2 2.0
2017-Mar-28 22:32N 69°38' E 018°58'1 1.0
2017-Mar-28 21:33N 69°39' E 018°58'0 0.0
2017-Mar-28 20:33N 69°39' E 018°58'0 0.2
2017-Mar-28 19:33N 69°39' E 018°59'0 0.2
2017-Mar-28 18:33N 69°39' E 018°59'2 1.8
2017-Mar-28 17:33N 69°38' E 018°56'0 0.0
2017-Mar-28 16:33N 69°38' E 018°56'0 0.0
2017-Mar-28 15:33N 69°38' E 018°56'0 0.0
2017-Mar-28 14:33N 69°38' E 018°56'0 0.0
2017-Mar-28 13:33N 69°38' E 018°56'0 0.0
2017-Mar-28 12:33N 69°38' E 018°56'0 0.0
2017-Mar-28 11:33N 69°38' E 018°56'0 0.0
2017-Mar-28 10:33N 69°38' E 018°56'0 0.0
2017-Mar-28 09:33N 69°38' E 018°56'0 0.0
2017-Mar-28 08:33N 69°38' E 018°56'0 0.0
2017-Mar-28 07:33N 69°38' E 018°56'0 0.0
2017-Mar-28 06:33N 69°38' E 018°56'0 0.0
2017-Mar-28 05:32N 69°38' E 018°56'0 0.0
2017-Mar-28 04:33N 69°38' E 018°56'0 0.0
2017-Mar-28 03:33N 69°38' E 018°56'0 0.0
2017-Mar-28 02:32N 69°38' E 018°56'0 0.0
2017-Mar-28 01:34N 69°38' E 018°56'0 0.0
2017-Mar-28 00:33N 69°38' E 018°56'0 0.0
2017-Mar-27 23:33N 69°38' E 018°56'0 0.0
2017-Mar-27 22:33N 69°38' E 018°56'7 7.2
2017-Mar-27 21:33N 69°33' E 018°41'1312.9
2017-Mar-27 20:33N 69°28' E 018°08'1211.8
2017-Mar-27 19:33N 69°17' E 017°58'1010.0
2017-Mar-27 18:33N 69°08' E 017°43'1212.4
2017-Mar-27 17:33N 69°00' E 017°16'1212.2
2017-Mar-27 16:33N 68°50' E 016°56'1211.8
2017-Mar-27 15:33N 68°40' E 016°39'1111.0
2017-Mar-27 14:33N 68°33' E 016°16'1212.5
2017-Mar-27 13:33N 68°22' E 015°59'1313.0
2017-Mar-27 12:33N 68°13' E 015°35'1313.1
2017-Mar-27 11:33N 68°05' E 015°08'1313.1
2017-Mar-27 10:33N 67°56' E 014°42'1212.1
2017-Mar-27 09:33N 67°47' E 014°21'1212.0
2017-Mar-27 08:33N 67°35' E 014°21'1212.2
2017-Mar-27 07:33N 67°23' E 014°25'1312.7
2017-Mar-27 06:33N 67°12' E 014°06'1312.4
2017-Mar-27 05:33N 67°02' E 013°47'1211.8
2017-Mar-27 04:33N 66°54' E 013°26'1212.3
2017-Mar-27 03:33N 66°43' E 013°11'1211.9
2017-Mar-27 02:33N 66°32' E 012°58'1312.7
2017-Mar-27 01:33N 66°20' E 012°57'1312.7
2017-Mar-27 00:32N 66°07' E 012°46'1313.2
2017-Mar-26 23:33N 65°57' E 012°26'1313.1
2017-Mar-26 22:33N 65°45' E 012°18'1312.6
2017-Mar-26 21:33N 65°33' E 012°04'1111.0
2017-Mar-26 20:33N 65°22' E 012°00'1111.0
2017-Mar-26 19:33N 65°12' E 011°52'1212.5
2017-Mar-26 18:33N 65°01' E 011°40'1312.7
2017-Mar-26 17:33N 64°52' E 011°17'9 8.8
2017-Mar-26 16:33N 64°46' E 011°02'1212.3
2017-Mar-26 15:33N 64°38' E 010°41'1211.7
2017-Mar-26 14:32N 64°28' E 010°26'1111.6
2017-Mar-26 13:33N 64°17' E 010°19'1212.3
2017-Mar-26 12:33N 64°07' E 010°02'1111.5
2017-Mar-26 11:33N 63°58' E 009°47'1212.5
2017-Mar-26 10:33N 63°47' E 009°33'1312.5
2017-Mar-26 09:33N 63°35' E 009°24'1514.4
2017-Mar-26 08:33N 63°28' E 008°56'1414.2
2017-Mar-26 07:32N 63°22' E 008°26'1414.3
2017-Mar-26 06:33N 63°14' E 008°01'1413.8
2017-Mar-26 05:33N 63°07' E 007°34'1313.2
2017-Mar-26 04:33N 63°01' E 007°08'1312.9
2017-Mar-26 03:34N 62°54' E 006°45'1413.6
2017-Mar-26 02:33N 62°42' E 006°29'1312.9
2017-Mar-26 01:33N 62°33' E 006°10'1110.6
2017-Mar-26 00:33N 62°27' E 005°51'1312.4
2017-Mar-25 23:33N 62°23' E 005°25'1313.0
2017-Mar-25 22:32N 62°13' E 005°08'1010.6
2017-Mar-25 21:33N 62°03' E 005°08'1110.7
2017-Mar-25 20:33N 61°52' E 005°13'1010.4
2017-Mar-25 19:33N 61°44' E 004°59'1212.1
2017-Mar-25 18:33N 61°32' E 005°00'1312.5
2017-Mar-25 17:33N 61°21' E 004°48'1211.9
2017-Mar-25 16:33N 61°09' E 004°45'1312.6
2017-Mar-25 15:33N 60°57' E 004°45'1212.0
2017-Mar-25 14:33N 60°45' E 004°48'1312.5
2017-Mar-25 13:33N 60°33' E 004°56'1212.3
2017-Mar-25 12:33N 60°23' E 005°10'1211.7
2017-Mar-25 11:33N 60°11' E 005°13'1312.9
2017-Mar-25 10:33N 59°59' E 005°22'1312.6
2017-Mar-25 09:33N 59°48' E 005°33'1212.2
2017-Mar-25 08:33N 59°38' E 005°19'1212.0
2017-Mar-25 07:33N 59°26' E 005°14'1111.4
2017-Mar-25 06:33N 59°16' E 005°20'1212.2
2017-Mar-25 05:33N 59°03' E 005°21'1212.1
2017-Mar-25 04:33N 58°51' E 005°21'1211.7
2017-Mar-25 03:33N 58°40' E 005°23'1111.3
2017-Mar-25 02:33N 58°28' E 005°25'1111.4
2017-Mar-25 01:33N 58°17' E 005°25'12911.6
2017-Mar-24 14:26N 56°08' E 005°27'1212.1
2017-Mar-24 13:25N 55°56' E 005°26'1112.1
2017-Mar-24 12:33N 55°45' E 005°25'16411.6
2017-Mar-23 22:26N 53°04' E 004°33'1011.2
2017-Mar-23 21:33N 52°54' E 004°32'1111.1
2017-Mar-23 20:33N 52°43' E 004°30'1111.0
2017-Mar-23 19:33N 52°32' E 004°30'6 5.6
2017-Mar-23 18:33N 52°28' E 004°36'2 2.3
2017-Mar-23 17:33N 52°28' E 004°40'0 0.0
2017-Mar-23 16:33N 52°28' E 004°40'0 0.0
2017-Mar-23 14:33N 52°28' E 004°40'0 0.0
2017-Mar-23 13:33N 52°28' E 004°40'0 0.0
2017-Mar-23 12:33N 52°28' E 004°40'0 0.0
2017-Mar-23 11:33N 52°28' E 004°40'0 0.0
2017-Mar-23 10:33N 52°28' E 004°40'0 0.0
2017-Mar-23 09:33N 52°28' E 004°40'0 0.0
2017-Mar-23 08:33N 52°28' E 004°40'0 0.0
2017-Mar-23 07:33N 52°28' E 004°40'0 0.0
2017-Mar-23 06:33N 52°28' E 004°40'0 0.0
2017-Mar-23 05:33N 52°28' E 004°40'2 1.8
2017-Mar-23 04:33N 52°28' E 004°37'5 4.7
2017-Mar-23 03:33N 52°29' E 004°29'1212.1
2017-Mar-23 02:33N 52°41' E 004°29'1211.6
2017-Mar-23 01:31N 52°53' E 004°30'31410.5
2017-Mar-21 19:30N 58°04' E 005°56'1010.4
2017-Mar-21 18:33N 58°14' E 005°58'1110.8
2017-Mar-21 17:33N 58°24' E 005°60'2 2.3
2017-Mar-21 16:33N 58°27' E 005°59'0 0.0
2017-Mar-21 15:33N 58°27' E 005°59'0 0.0
2017-Mar-21 14:33N 58°27' E 005°59'0 0.0
2017-Mar-21 13:33N 58°27' E 005°59'0 0.0
2017-Mar-21 12:33N 58°27' E 005°59'0 0.0
2017-Mar-21 11:33N 58°27' E 005°59'0 0.0
2017-Mar-21 10:33N 58°27' E 005°59'3 3.2
2017-Mar-21 09:33N 58°24' E 005°55'1211.9
2017-Mar-21 08:33N 58°29' E 005°35'8 7.5
2017-Mar-21 07:33N 58°33' E 005°22'1 1.1
2017-Mar-21 06:31N 58°33' E 005°20'1 1.2
2017-Mar-21 05:33N 58°33' E 005°18'8 8.4
2017-Mar-21 04:34N 58°41' E 005°22'8 8.3
2017-Mar-21 03:34N 58°49' E 005°26'9 8.8
2017-Mar-21 02:33N 58°57' E 005°33'1110.8
2017-Mar-21 01:33N 59°07' E 005°27'1110.8
2017-Mar-21 00:33N 59°18' E 005°20'10 9.9
2017-Mar-20 23:33N 59°27' E 005°13'1010.3
2017-Mar-20 22:33N 59°37' E 005°17'1111.5
2017-Mar-20 21:34N 59°46' E 005°32'1110.6
2017-Mar-20 20:33N 59°56' E 005°28'1110.8
2017-Mar-20 19:33N 60°06' E 005°18'1111.0
2017-Mar-20 18:33N 60°16' E 005°10'10 9.6
2017-Mar-20 17:33N 60°25' E 005°03'1111.1
2017-Mar-20 16:33N 60°35' E 004°54'1110.7
2017-Mar-20 15:33N 60°45' E 004°46'  

Dump ship's entire track history